Time;durP1;ratioP1;P1;durP2;ratioP2;P2;SDS_P1;SDS_P2;PMS_P1;PMS_P2;Temp;Humidity;BMP_temperature;BMP_pressure;BME280_temperature;BME280_humidity;BME280_pressure;Samples;Min_cycle;Max_cycle;Signal;HPM_P1;HPM_P2
2022/08/30 00:01:57;;;;;;;2.47;1.30;;;;;;;15.68;100.00;101559.50;5032403;28;20430;-85
2022/08/30 00:04:25;;;;;;;2.83;1.40;;;;;;;15.68;100.00;101569.66;5034366;28;20418;-87
2022/08/30 00:07:01;;;;;;;1.67;1.23;;;;;;;15.54;100.00;101553.91;5032803;28;20423;-85
2022/08/30 00:09:34;;;;;;;3.50;1.40;;;;;;;15.65;100.00;101563.63;5016237;28;20412;-86
2022/08/30 00:12:03;;;;;;;2.00;1.20;;;;;;;15.57;100.00;101560.72;5032736;28;20427;-86
2022/08/30 00:14:36;;;;;;;2.17;1.20;;;;;;;15.52;100.00;101550.63;5034082;28;20490;-88
2022/08/30 00:17:09;;;;;;;2.25;1.20;;;;;;;15.61;100.00;101565.34;5031933;28;20410;-85
2022/08/30 00:19:37;;;;;;;3.20;1.23;;;;;;;15.62;100.00;101566.16;5031317;28;20418;-87
2022/08/30 00:22:12;;;;;;;2.10;1.17;;;;;;;15.62;100.00;101560.69;5028894;28;20919;-85
2022/08/30 00:24:45;;;;;;;2.90;1.48;;;;;;;15.47;100.00;101542.47;5030130;28;20422;-86
2022/08/30 00:27:18;;;;;;;2.25;1.20;;;;;;;15.62;100.00;101552.44;5029557;28;20423;-88
2022/08/30 00:29:47;;;;;;;2.33;1.20;;;;;;;15.58;100.00;101556.88;5014011;28;20752;-85
2022/08/30 00:32:20;;;;;;;3.95;1.20;;;;;;;15.51;100.00;101549.00;5038315;28;20884;-85
2022/08/30 00:34:54;;;;;;;2.05;1.10;;;;;;;15.58;100.00;101554.16;5031070;28;20426;-85
2022/08/30 00:37:24;;;;;;;3.47;1.10;;;;;;;15.65;100.00;101562.84;5027541;28;20407;-86
2022/08/30 00:39:57;;;;;;;5.25;1.45;;;;;;;15.53;100.00;101548.72;5026280;28;20435;-85
2022/08/30 00:42:31;;;;;;;3.13;1.30;;;;;;;15.64;100.00;101566.69;5011571;28;20427;-85
2022/08/30 00:45:00;;;;;;;2.40;1.30;;;;;;;15.61;100.00;101557.09;5011866;28;20524;-86
2022/08/30 00:47:30;;;;;;;2.80;1.40;;;;;;;15.71;100.00;101563.59;5030762;28;20783;-87
2022/08/30 00:50:07;;;;;;;3.00;1.10;;;;;;;15.60;100.00;101549.97;5029362;28;20423;-85
2022/08/30 00:52:46;;;;;;;3.90;1.30;;;;;;;15.69;100.00;101571.28;5016007;28;20407;-85
2022/08/30 00:55:20;;;;;;;3.25;1.20;;;;;;;15.71;100.00;101571.81;5031391;28;20430;-85
2022/08/30 00:57:53;;;;;;;2.42;1.20;;;;;;;15.69;100.00;101576.75;5031074;28;20419;-85
2022/08/30 01:00:22;;;;;;;3.25;1.33;;;;;;;15.70;100.00;101575.66;5015050;28;20415;-86
2022/08/30 01:02:56;;;;;;;2.80;1.20;;;;;;;15.54;100.00;101555.84;5015379;28;20423;-85
2022/08/30 01:05:29;;;;;;;2.10;1.10;;;;;;;15.65;100.00;101588.34;5030849;28;20422;-85
2022/08/30 01:08:04;;;;;;;3.90;1.10;;;;;;;15.60;100.00;101577.41;5031466;28;20435;-84
2022/08/30 01:10:34;;;;;;;3.03;1.23;;;;;;;15.64;100.00;101583.13;5033380;28;20749;-85
2022/08/30 01:13:09;;;;;;;7.07;1.25;;;;;;;15.51;100.00;101564.63;5031735;28;20411;-86
2022/08/30 01:15:44;;;;;;;4.05;1.25;;;;;;;15.62;100.00;101582.63;5015121;28;20411;-85
2022/08/30 01:18:18;;;;;;;2.58;1.08;;;;;;;15.58;100.00;101592.56;5014609;28;20765;-85
2022/08/30 01:20:59;;;;;;;2.80;1.10;;;;;;;15.55;100.00;101591.22;5004056;28;20435;-85
2022/08/30 01:23:31;;;;;;;2.95;1.25;;;;;;;15.53;100.00;101587.13;5030477;28;20415;-85
2022/08/30 01:26:01;;;;;;;2.72;1.10;;;;;;;15.60;100.00;101590.31;5014551;28;20418;-85
2022/08/30 01:28:35;;;;;;;4.03;1.13;;;;;;;15.63;100.00;101586.97;5030657;28;20776;-85
2022/08/30 01:31:03;;;;;;;2.38;1.30;;;;;;;15.58;100.00;101578.84;5031510;28;20427;-86
2022/08/30 01:33:37;;;;;;;2.63;1.00;;;;;;;15.64;100.00;101588.63;5014830;28;20446;-85
2022/08/30 01:36:13;;;;;;;2.60;1.10;;;;;;;15.68;100.00;101597.09;5032320;28;20435;-85
2022/08/30 01:38:50;;;;;;;3.53;1.13;;;;;;;15.67;100.00;101592.72;5031875;28;20779;-86
2022/08/30 01:41:25;;;;;;;3.50;1.10;;;;;;;15.61;100.00;101590.03;5013963;28;20423;-85
2022/08/30 01:43:56;;;;;;;3.08;1.13;;;;;;;15.67;100.00;101595.47;5027177;28;20768;-85
2022/08/30 01:46:27;;;;;;;2.03;1.10;;;;;;;15.67;100.00;101600.94;5011851;28;20421;-85
2022/08/30 01:49:02;;;;;;;2.80;1.20;;;;;;;15.65;100.00;101598.50;5012362;28;20420;-85
2022/08/30 01:51:35;;;;;;;2.10;1.00;;;;;;;15.47;100.00;101570.69;5010647;28;20420;-85
2022/08/30 01:54:10;;;;;;;3.00;1.15;;;;;;;15.64;100.00;101589.44;5011195;28;20421;-85
2022/08/30 01:56:44;;;;;;;3.20;1.40;;;;;;;15.52;100.00;101569.00;5010705;28;20522;-86
2022/08/30 01:59:12;;;;;;;2.30;1.20;;;;;;;15.63;100.00;101592.47;5009777;28;20415;-85
2022/08/30 02:01:41;;;;;;;2.17;1.23;;;;;;;15.61;100.00;101595.50;5030874;28;20449;-86
2022/08/30 02:04:12;;;;;;;2.03;1.20;;;;;;;15.52;100.00;101578.03;5012295;28;20456;-87
2022/08/30 02:06:40;;;;;;;4.20;1.45;;;;;;;15.61;100.00;101583.72;5029908;28;20407;-86
2022/08/30 02:09:10;;;;;;;2.30;1.30;;;;;;;15.56;100.00;101587.34;5029255;28;21029;-87
2022/08/30 02:11:38;;;;;;;2.42;1.20;;;;;;;15.53;100.00;101567.91;5014133;28;20407;-85
2022/08/30 02:14:11;;;;;;;2.33;1.20;;;;;;;15.59;100.00;101581.28;5030050;28;20415;-85
2022/08/30 02:16:45;;;;;;;5.20;1.30;;;;;;;15.54;100.00;101573.09;5014067;28;20488;-85
2022/08/30 02:19:15;;;;;;;1.90;1.17;;;;;;;15.52;100.00;101578.03;5013173;28;21179;-84
2022/08/30 02:21:48;;;;;;;2.47;1.02;;;;;;;15.59;100.00;101575.78;5014261;28;20426;-85
2022/08/30 02:24:17;;;;;;;2.13;1.20;;;;;;;15.61;100.00;101575.50;5031927;28;20411;-84
2022/08/30 02:26:51;;;;;;;2.38;1.00;;;;;;;15.61;100.00;101581.00;5031757;28;20415;-85
2022/08/30 02:29:27;;;;;;;2.80;1.30;;;;;;;15.45;100.00;101555.63;5031691;28;20487;-85
2022/08/30 02:32:00;;;;;;;3.40;1.20;;;;;;;15.50;100.00;101574.78;5030553;28;20506;-84
2022/08/30 02:34:33;;;;;;;2.63;1.20;;;;;;;15.51;100.00;101570.94;5013866;28;20427;-85
2022/08/30 02:37:07;;;;;;;1.73;1.20;;;;;;;15.46;100.00;101573.75;5013640;28;20438;-86
2022/08/30 02:39:37;;;;;;;3.50;1.20;;;;;;;15.28;100.00;101545.94;5029491;28;20426;-85
2022/08/30 02:42:05;;;;;;;4.03;1.30;;;;;;;15.33;100.00;101558.81;5030230;28;20415;-86
2022/08/30 02:44:33;;;;;;;2.10;1.30;;;;;;;15.35;100.00;101574.97;5030425;28;20436;-86
2022/08/30 02:47:02;;;;;;;2.20;1.25;;;;;;;15.28;100.00;101569.81;5029808;28;20423;-84
2022/08/30 02:49:36;;;;;;;3.67;1.30;;;;;;;15.32;100.00;101573.63;5029976;28;20419;-84
2022/08/30 02:52:09;;;;;;;2.60;1.20;;;;;;;15.28;100.00;101570.63;5029947;28;20427;-84
2022/08/30 02:54:43;;;;;;;3.35;1.23;;;;;;;15.25;100.00;101562.97;5029965;28;20419;-84
2022/08/30 02:57:16;;;;;;;3.47;1.20;;;;;;;15.28;100.00;101567.88;5013356;28;20430;-85
2022/08/30 02:59:50;;;;;;;2.38;1.20;;;;;;;15.36;100.00;101562.91;5013831;28;20918;-84
2022/08/30 03:02:23;;;;;;;3.50;1.10;;;;;;;15.18;100.00;101559.78;5027695;28;20422;-84
2022/08/30 03:04:52;;;;;;;2.20;1.35;;;;;;;15.23;100.00;101572.59;5013064;28;20430;-86
2022/08/30 03:07:20;;;;;;;3.65;1.30;;;;;;;15.24;100.00;101575.06;5029403;28;20811;-85
2022/08/30 03:09:55;;;;;;;1.88;1.25;;;;;;;15.25;100.00;101578.63;5031458;28;20411;-85
2022/08/30 03:12:23;;;;;;;3.42;1.40;;;;;;;15.21;100.00;101578.38;5013915;28;20419;-84
2022/08/30 03:14:52;;;;;;;4.93;1.40;;;;;;;15.21;100.00;101586.59;5031360;28;20414;-84
2022/08/30 03:17:26;;;;;;;2.60;1.23;;;;;;;15.14;100.00;101577.91;5030851;28;20431;-84
2022/08/30 03:20:00;;;;;;;1.95;1.20;;;;;;;15.20;100.00;101575.94;5033155;28;20426;-83
2022/08/30 03:22:34;;;;;;;2.13;1.10;;;;;;;15.28;100.00;101580.78;5033835;28;20776;-83
2022/08/30 03:25:10;;;;;;;3.17;1.30;;;;;;;15.23;100.00;101586.31;5017561;28;20430;-84
2022/08/30 03:27:38;;;;;;;4.23;1.30;;;;;;;15.16;100.00;101583.91;5015845;28;20422;-85
2022/08/30 03:30:08;;;;;;;2.42;1.20;;;;;;;15.19;100.00;101583.34;5014207;28;20449;-84
2022/08/30 03:32:36;;;;;;;2.37;1.30;;;;;;;15.17;100.00;101579.25;5024562;28;20422;-86
2022/08/30 03:35:06;;;;;;;2.53;1.23;;;;;;;15.20;100.00;101584.97;5029834;28;20812;-85
2022/08/30 03:37:39;;;;;;;2.60;1.20;;;;;;;15.25;100.00;101584.13;5021147;28;20419;-85
2022/08/30 03:40:11;;;;;;;2.55;1.20;;;;;;;15.20;100.00;101584.97;5027942;28;20641;-86
2022/08/30 03:42:45;;;;;;;3.88;1.35;;;;;;;15.07;100.00;101575.50;5012818;28;20423;-87
2022/08/30 03:45:19;;;;;;;2.58;1.10;;;;;;;15.06;100.00;101590.31;5030963;28;20423;-83
2022/08/30 03:47:47;;;;;;;5.15;1.25;;;;;;;15.07;100.00;101570.00;5016000;28;20780;-87
2022/08/30 03:50:20;;;;;;;4.45;1.25;;;;;;;15.11;100.00;101579.28;5049968;28;20425;-84
2022/08/30 03:52:54;;;;;;;1.80;1.20;;;;;;;14.91;100.00;101560.28;5055036;28;20421;-84
2022/08/30 03:55:24;;;;;;;3.22;1.25;;;;;;;15.01;100.00;101587.63;5036586;28;20410;-85
2022/08/30 03:57:57;;;;;;;2.63;1.20;;;;;;;15.03;100.00;101579.91;5054228;28;20421;-83
2022/08/30 04:00:30;;;;;;;3.03;1.20;;;;;;;15.09;100.00;101589.75;5054455;28;20452;-85
2022/08/30 04:02:59;;;;;;;2.75;1.15;;;;;;;15.06;100.00;101590.31;5052905;28;20422;-84
2022/08/30 04:05:32;;;;;;;2.50;1.25;;;;;;;15.13;100.00;101590.81;5052461;28;20409;-85
2022/08/30 04:08:00;;;;;;;4.03;1.30;;;;;;;15.09;100.00;101580.69;5017973;28;20419;-86
2022/08/30 04:10:35;;;;;;;4.43;1.50;;;;;;;15.10;100.00;101594.09;5022749;28;20434;-84
2022/08/30 04:13:08;;;;;;;2.60;1.30;;;;;;;15.05;100.00;101579.63;5021510;28;20430;-86
2022/08/30 04:15:42;;;;;;;4.22;1.30;;;;;;;15.07;100.00;101591.94;5021261;28;20871;-85
2022/08/30 04:18:15;;;;;;;2.57;1.30;;;;;;;14.89;100.00;101570.75;5012217;28;20431;-85
2022/08/30 04:20:49;;;;;;;2.40;1.17;;;;;;;14.99;100.00;101587.09;5025298;28;20909;-85
2022/08/30 04:23:22;;;;;;;2.75;1.10;;;;;;;15.03;100.00;101592.81;5012856;28;20415;-85
2022/08/30 04:25:56;;;;;;;3.85;1.17;;;;;;;15.06;100.00;101593.03;5032108;28;20427;-87
2022/08/30 04:28:25;;;;;;;4.43;1.20;;;;;;;14.94;100.00;101592.59;5009680;28;20437;-83
2022/08/30 04:30:58;;;;;;;3.97;1.20;;;;;;;15.04;100.00;101595.28;5014832;28;20411;-84
2022/08/30 04:33:31;;;;;;;2.97;1.30;;;;;;;14.93;100.00;101588.25;5032073;28;20430;-85
2022/08/30 04:36:03;;;;;;;2.90;1.30;;;;;;;15.06;100.00;101600.47;5032245;28;20906;-85
2022/08/30 04:38:32;;;;;;;2.45;1.20;;;;;;;15.07;100.00;101602.09;5031916;28;20431;-86
2022/08/30 04:41:01;;;;;;;2.43;1.20;;;;;;;15.13;100.00;101598.19;5031644;28;20434;-85
2022/08/30 04:43:35;;;;;;;2.20;1.20;;;;;;;15.17;100.00;101593.78;5033491;28;20415;-86
2022/08/30 04:46:05;;;;;;;3.85;1.17;;;;;;;15.04;100.00;101598.00;5028081;28;20439;-84
2022/08/30 04:48:35;;;;;;;2.92;1.10;;;;;;;15.06;100.00;101595.78;5028068;28;20428;-85
2022/08/30 04:51:05;;;;;;;3.20;1.30;;;;;;;15.12;100.00;101596.56;5012405;28;20909;-86
2022/08/30 04:53:38;;;;;;;2.35;1.20;;;;;;;15.08;100.00;101596.34;5015301;28;20423;-85
2022/08/30 04:56:10;;;;;;;3.22;1.33;;;;;;;15.11;100.00;101589.47;5032039;28;20438;-85
2022/08/30 04:58:38;;;;;;;3.22;1.20;;;;;;;15.14;100.00;101608.88;5014957;28;20430;-83
2022/08/30 05:01:13;;;;;;;4.03;1.30;;;;;;;15.11;100.00;101600.41;5031953;28;20423;-84
2022/08/30 05:03:47;;;;;;;2.20;1.10;;;;;;;15.05;100.00;101602.41;5031996;28;20932;-84
2022/08/30 05:06:22;;;;;;;5.47;1.50;;;;;;;15.05;100.00;101607.03;5033062;28;20419;-84
2022/08/30 05:08:56;;;;;;;1.83;1.20;;;;;;;15.04;100.00;101610.88;5014320;28;20796;-83
2022/08/30 05:11:30;;;;;;;3.45;1.40;;;;;;;15.04;100.00;101616.38;5031448;28;20411;-85
2022/08/30 05:14:03;;;;;;;3.83;1.40;;;;;;;14.92;100.00;101605.78;5032932;28;20443;-84
2022/08/30 05:16:36;;;;;;;2.20;1.25;;;;;;;15.12;100.00;101618.47;5015171;28;20419;-85
2022/08/30 05:19:10;;;;;;;3.40;1.40;;;;;;;15.09;100.00;101617.16;5027034;28;20436;-86
2022/08/30 05:21:43;;;;;;;3.60;1.40;;;;;;;15.19;100.00;101631.88;5031226;28;20419;-86
2022/08/30 05:24:16;;;;;;;2.57;1.40;;;;;;;15.18;100.00;101622.00;5032753;28;20426;-84
2022/08/30 05:26:45;;;;;;;2.80;1.40;;;;;;;15.24;100.00;101629.09;5032745;28;20411;-86
2022/08/30 05:29:19;;;;;;;2.22;1.13;;;;;;;15.22;100.00;101625.81;5013892;28;20419;-84
2022/08/30 05:31:52;;;;;;;6.32;1.40;;;;;;;15.20;100.00;101626.09;5030716;28;20407;-85
2022/08/30 05:34:26;;;;;;;3.45;1.33;;;;;;;15.14;100.00;101630.81;5032740;28;21012;-85
2022/08/30 05:36:54;;;;;;;3.10;1.40;;;;;;;15.21;100.00;101625.00;5014580;28;20430;-84
2022/08/30 05:39:27;;;;;;;4.13;1.48;;;;;;;15.22;100.00;101617.56;5026198;28;20422;-85
2022/08/30 05:42:02;;;;;;;7.10;1.63;;;;;;;15.22;100.00;101617.56;5013618;28;20415;-86
2022/08/30 05:44:31;;;;;;;2.38;1.23;;;;;;;15.35;100.00;101629.81;5029878;28;20407;-86
2022/08/30 05:46:59;;;;;;;4.57;1.40;;;;;;;15.38;100.00;101631.97;5010601;28;20427;-87
2022/08/30 05:49:27;;;;;;;4.32;1.42;;;;;;;15.34;100.00;101625.44;5023068;28;20438;-85
2022/08/30 05:51:55;;;;;;;2.60;1.40;;;;;;;15.36;100.00;101620.50;5022972;28;20400;-85
2022/08/30 05:54:29;;;;;;;3.08;1.40;;;;;;;15.32;100.00;101620.25;5023163;28;20435;-86
2022/08/30 05:57:03;;;;;;;2.88;1.40;;;;;;;15.38;100.00;101615.50;5027284;28;20951;-85
2022/08/30 05:59:32;;;;;;;4.68;1.45;;;;;;;15.50;100.00;101637.09;5024959;28;20430;-87
2022/08/30 06:02:06;;;;;;;3.70;1.50;;;;;;;15.50;100.00;101621.44;5024610;28;20434;-86
2022/08/30 06:04:39;;;;;;;3.17;1.58;;;;;;;15.38;100.00;101605.34;5019875;28;20427;-86
2022/08/30 06:07:12;;;;;;;2.17;1.40;;;;;;;15.56;100.00;101614.75;5007151;28;20833;-87
2022/08/30 06:09:45;;;;;;;4.30;1.50;;;;;;;15.71;100.00;101623.97;5008729;28;20438;-88
2022/08/30 06:12:20;;;;;;;3.85;1.63;;;;;;;15.66;100.00;101624.84;5025865;28;20504;-89
2022/08/30 06:14:49;;;;;;;3.35;1.60;;;;;;;15.67;100.00;101620.97;5031719;28;20775;-87
2022/08/30 06:17:22;;;;;;;5.43;1.60;;;;;;;15.92;100.00;101632.78;5011807;28;20415;-86
2022/08/30 06:19:50;;;;;;;3.25;1.60;;;;;;;15.96;100.00;101636.59;4999573;28;20474;-86
2022/08/30 06:22:23;;;;;;;3.50;1.70;;;;;;;16.02;100.00;101640.91;4998920;28;20432;-86
2022/08/30 06:24:57;;;;;;;3.47;1.60;;;;;;;16.00;100.00;101645.88;5023510;28;20437;-87
2022/08/30 06:27:32;;;;;;;3.10;1.70;;;;;;;16.09;100.00;101632.34;5009549;28;20418;-89
2022/08/30 06:30:07;;;;;;;3.83;1.80;;;;;;;16.22;100.00;101642.59;5031730;28;20795;-85
2022/08/30 06:32:35;;;;;;;2.38;1.55;;;;;;;16.25;100.00;101638.44;5021073;28;20426;-88
2022/08/30 06:35:09;;;;;;;3.95;1.80;;;;;;;16.27;100.00;101648.00;4998418;28;20835;-88
2022/08/30 06:37:37;;;;;;;3.20;1.50;;;;;;;16.43;100.00;101648.63;5004683;28;20433;-83
2022/08/30 06:40:07;;;;;;;2.90;1.50;;;;;;;16.36;100.00;101645.41;5024868;28;20442;-90
2022/08/30 06:42:37;;;;;;;2.40;1.40;;;;;;;16.40;100.00;101626.41;5015756;28;20434;-88
2022/08/30 06:45:06;;;;;;;4.22;1.40;;;;;;;16.57;100.00;101645.13;5016750;28;20764;-91
2022/08/30 06:47:34;;;;;;;2.63;1.42;;;;;;;16.54;100.00;101651.22;5000475;28;20421;-88
2022/08/30 06:50:04;;;;;;;2.35;1.30;;;;;;;16.66;100.00;101657.91;5021696;28;20411;-89
2022/08/30 06:52:37;;;;;;;1.83;1.13;;;;;;;16.63;100.00;101647.50;5007348;28;20784;-89
2022/08/30 06:55:06;;;;;;;2.97;1.30;;;;;;;16.65;100.00;101642.56;5006830;28;20418;-90
2022/08/30 06:57:34;;;;;;;4.25;1.20;;;;;;;16.69;100.00;101639.19;5024967;28;20437;-90
2022/08/30 07:00:08;;;;;;;2.08;1.10;;;;;;;16.82;100.00;101665.91;5026882;28;20426;-88
2022/08/30 07:02:36;;;;;;;3.20;1.05;;;;;;;16.55;100.00;101626.19;5009320;28;21127;-85
2022/08/30 07:05:06;;;;;;;1.30;0.90;;;;;;;16.74;100.00;101661.13;5008029;28;20416;-89
2022/08/30 07:07:35;;;;;;;2.30;1.00;;;;;;;16.78;100.00;101643.72;5006572;28;21375;-91
2022/08/30 07:10:09;;;;;;;2.92;1.10;;;;;;;16.75;100.00;101663.56;5026776;28;20433;-91
2022/08/30 07:12:37;;;;;;;2.20;1.10;;;;;;;16.88;100.00;101666.69;5026853;28;21275;-88
2022/08/30 07:15:08;;;;;;;1.83;1.10;;;;;;;17.00;100.00;101665.13;5008747;28;20431;-90
2022/08/30 07:20:38;;;;;;;1.70;1.00;;;;;;;16.91;100.00;101635.88;4939054;28;20420;-90
2022/08/30 07:23:06;;;;;;;1.90;0.90;;;;;;;17.30;100.00;101651.16;4952339;28;20916;-90
2022/08/30 07:25:36;;;;;;;1.80;0.93;;;;;;;17.48;100.00;101669.56;4983614;28;20429;-87
2022/08/30 07:28:04;;;;;;;2.08;1.00;;;;;;;17.58;100.00;101657.56;5007054;28;21269;-92
2022/08/30 07:30:35;;;;;;;1.80;1.00;;;;;;;17.71;100.00;101675.19;5004620;28;20805;-91
2022/08/30 07:33:08;;;;;;;2.10;1.05;;;;;;;17.89;100.00;101678.19;5007337;28;20428;-90
2022/08/30 07:35:42;;;;;;;2.65;1.00;;;;;;;17.98;100.00;101679.94;5009566;28;20424;-89
2022/08/30 07:38:12;;;;;;;1.90;1.00;;;;;;;17.67;100.00;101635.63;5003841;28;20544;-91
2022/08/30 07:40:41;;;;;;;1.38;0.93;;;;;;;17.98;100.00;101676.34;5003955;28;20436;-88
2022/08/30 07:43:14;;;;;;;2.60;1.10;;;;;;;17.77;100.00;101651.97;5020896;28;20424;-92
2022/08/30 07:45:44;;;;;;;2.80;0.90;;;;;;;18.06;100.00;101672.88;5003338;28;21245;-91
2022/08/30 07:48:12;;;;;;;2.65;1.00;;;;;;;17.91;100.00;101685.03;5021799;28;20428;-90
2022/08/30 07:50:44;;;;;;;1.00;0.70;;;;;;;18.09;100.00;101688.81;5006919;28;20871;-90
2022/08/30 07:53:13;;;;;;;2.15;1.00;;;;;;;18.14;100.00;101657.59;5006243;28;20459;-90
2022/08/30 07:55:41;;;;;;;1.70;0.95;;;;;;;18.26;100.00;101651.56;5006055;28;20431;-90
2022/08/30 07:58:14;;;;;;;1.02;0.77;;;;;;;18.39;100.00;101685.72;5009705;28;20429;-90
2022/08/30 08:00:44;;;;;;;1.15;0.85;;;;;;;18.19;100.00;101674.03;5008578;28;20422;-91
2022/08/30 08:03:13;;;;;;;2.97;1.00;;;;;;;17.88;100.00;101663.56;5006714;28;20441;-91
2022/08/30 08:05:43;;;;;;;2.58;1.10;;;;;;;17.85;100.00;101665.00;5005222;28;20417;-89
2022/08/30 08:08:16;;;;;;;2.10;1.00;;;;;;;17.88;100.00;101666.34;5005011;28;20423;-90
2022/08/30 08:10:49;;;;;;;3.00;1.10;;;;;;;18.07;100.00;101701.25;5004978;28;21006;-83
2022/08/30 08:13:23;;;;;;;2.72;1.10;;;;;;;17.93;100.00;101688.28;5020653;28;20800;-88
2022/08/30 08:15:53;;;;;;;4.00;1.00;;;;;;;18.10;100.00;101701.44;5004072;28;20423;-88
2022/08/30 08:18:26;;;;;;;2.40;1.00;;;;;;;17.96;100.00;101656.59;5022931;28;20416;-89
2022/08/30 08:20:55;;;;;;;1.83;1.00;;;;;;;18.12;100.00;101693.72;5004423;28;20765;-91
2022/08/30 08:23:23;;;;;;;2.23;0.93;;;;;;;18.14;100.00;101705.22;5029999;28;20417;-90
2022/08/30 08:25:51;;;;;;;2.10;1.05;;;;;;;18.01;100.00;101697.81;5030080;28;20414;-89
2022/08/30 08:28:20;;;;;;;1.90;1.00;;;;;;;18.13;100.00;101697.28;5002360;28;20435;-89
2022/08/30 08:30:49;;;;;;;1.55;0.90;;;;;;;18.02;100.00;101682.88;5003765;28;20427;-84
2022/08/30 08:33:24;;;;;;;1.50;1.00;;;;;;;18.17;100.00;101704.63;5005069;28;20954;-90
2022/08/30 08:35:52;;;;;;;2.35;1.10;;;;;;;18.25;100.00;101716.06;4994473;28;20442;-90
2022/08/30 08:38:25;;;;;;;4.40;1.10;;;;;;;18.28;100.00;101696.94;5020266;28;20927;-91
2022/08/30 08:41:05;;;;;;;1.55;0.93;;;;;;;18.26;100.00;101704.72;5018310;28;20417;-89
2022/08/30 08:43:39;;;;;;;1.73;0.90;;;;;;;18.21;100.00;101718.59;5001897;28;20423;-91
2022/08/30 08:46:14;;;;;;;1.83;1.00;;;;;;;18.04;100.00;101697.19;4994548;28;20426;-90
2022/08/30 08:48:48;;;;;;;1.90;0.90;;;;;;;18.26;100.00;101726.78;5039557;28;20413;-91
2022/08/30 08:54:15;;;;;;;1.38;0.90;;;;;;;18.51;100.00;101714.38;5018917;28;21130;-89
2022/08/30 08:56:48;;;;;;;1.45;1.00;;;;;;;18.46;100.00;101717.28;5007948;28;20468;-90
2022/08/30 08:59:17;;;;;;;2.03;1.17;;;;;;;18.29;100.00;101706.06;5004539;28;20464;-89
2022/08/30 09:01:53;;;;;;;1.25;0.88;;;;;;;18.31;100.00;101726.66;5002875;28;20422;-89
2022/08/30 09:04:27;;;;;;;2.28;1.00;;;;;;;18.36;100.00;101722.97;5004607;28;20411;-85
2022/08/30 09:06:58;;;;;;;2.42;1.08;;;;;;;18.54;100.00;101718.47;5005772;28;20434;-90
2022/08/30 09:09:34;;;;;;;1.40;1.00;;;;;;;18.62;100.00;101725.22;5007814;28;21220;-90
2022/08/30 09:12:04;;;;;;;1.40;0.98;;;;;;;18.69;100.00;101720.09;5007404;28;20431;-90
2022/08/30 09:14:40;;;;;;;2.50;1.00;;;;;;;18.72;100.00;101730.47;5029459;28;20445;-91
2022/08/30 09:17:10;;;;;;;2.53;1.00;;;;;;;18.62;100.00;101719.69;5005032;28;20510;-91
2022/08/30 09:19:44;;;;;;;2.60;0.90;;;;;;;18.70;100.00;101725.28;5021770;28;21060;-89
2022/08/30 09:22:21;;;;;;;2.22;0.90;;;;;;;18.62;100.00;101728.78;5004440;28;21099;-89
2022/08/30 09:24:52;;;;;;;2.25;1.00;;;;;;;18.68;100.00;101722.03;5023694;28;20415;-91
2022/08/30 09:27:29;;;;;;;4.75;1.20;;;;;;;18.64;100.00;101722.94;5003764;28;20422;-88
2022/08/30 09:30:07;;;;;;;1.70;1.00;;;;;;;18.81;100.00;101727.78;5005530;28;20419;-87
2022/08/30 09:32:50;;;;;;;1.90;1.07;;;;;;;18.96;100.00;101718.41;5002159;28;21263;-91
2022/08/30 09:35:21;;;;;;;1.63;1.02;;;;;;;18.92;100.00;101718.22;4975027;28;20497;-88
2022/08/30 09:37:56;;;;;;;1.35;0.88;;;;;;;18.79;100.00;101700.53;5000675;28;21663;-90
2022/08/30 09:40:28;;;;;;;2.10;0.93;;;;;;;18.89;100.00;101726.28;5024901;28;20936;-87
2022/08/30 09:43:08;;;;;;;2.30;1.10;;;;;;;18.90;100.00;101734.25;5004249;28;20443;-89
2022/08/30 09:45:43;;;;;;;1.40;0.90;;;;;;;18.93;100.00;101735.56;5004857;28;20425;-91
2022/08/30 09:48:29;;;;;;;2.47;0.90;;;;;;;18.73;100.00;101712.81;5024192;28;20503;-84
2022/08/30 09:51:27;;;;;;;2.15;0.90;;;;;;;18.65;100.00;101721.81;5042237;28;20425;-90
2022/08/30 09:54:04;;;;;;;1.38;0.90;;;;;;;18.44;100.00;101719.50;5003280;28;20419;-86
2022/08/30 09:56:43;;;;;;;2.93;1.03;;;;;;;18.46;100.00;101738.50;5020520;28;20423;-87
2022/08/30 09:59:29;;;;;;;2.40;1.10;;;;;;;18.46;100.00;101722.78;5022132;28;20411;-88
2022/08/30 10:02:10;;;;;;;2.60;1.15;;;;;;;18.52;100.00;101732.56;5022549;28;20426;-89
2022/08/30 10:04:49;;;;;;;2.22;0.90;;;;;;;18.49;100.00;101735.13;5019990;28;20427;-87
2022/08/30 10:07:29;;;;;;;1.85;1.10;;;;;;;18.39;100.00;101725.13;5021752;28;20427;-89
2022/08/30 10:10:10;;;;;;;2.07;0.97;;;;;;;18.38;100.00;101714.41;5006952;28;21030;-90
2022/08/30 10:12:54;;;;;;;2.10;1.00;;;;;;;18.29;100.00;101719.84;5003890;28;20423;-89
2022/08/30 10:15:28;;;;;;;2.67;1.10;;;;;;;18.55;100.00;101738.56;5020661;28;20431;-86
2022/08/30 10:18:13;;;;;;;2.08;1.10;;;;;;;18.53;100.00;101733.38;5021657;28;20423;-89
2022/08/30 10:20:56;;;;;;;3.30;1.20;;;;;;;18.67;100.00;101739.69;5001535;28;20425;-89
2022/08/30 10:23:36;;;;;;;3.97;1.10;;;;;;;18.86;100.00;101733.22;5023989;28;20440;-87
2022/08/30 10:26:23;;;;;;;1.90;1.10;;;;;;;19.03;100.00;101741.69;5040999;28;20421;-89
2022/08/30 10:28:57;;;;;;;1.95;1.00;;;;;;;18.92;100.00;101747.72;5022589;28;20432;-88
2022/08/30 10:31:30;;;;;;;2.13;1.10;;;;;;;19.06;100.00;101743.00;5020511;28;20426;-87
2022/08/30 10:34:14;;;;;;;3.42;1.20;;;;;;;19.12;100.00;101744.50;5008712;28;20431;-85
2022/08/30 10:36:46;;;;;;;1.90;1.10;;;;;;;18.72;100.00;101726.91;4977468;28;20436;-89
2022/08/30 10:39:23;;;;;;;4.20;1.20;;;;;;;18.84;100.00;101750.06;5001548;28;20922;-89
2022/08/30 10:42:02;;;;;;;4.95;1.20;;;;;;;18.88;100.00;101755.00;5002629;28;20427;-89
2022/08/30 10:44:39;;;;;;;2.28;1.00;;;;;;;18.84;100.00;101761.09;5004480;28;20427;-88
2022/08/30 10:47:24;;;;;;;1.58;1.00;;;;;;;18.72;100.00;101747.03;5022426;28;20425;-88
2022/08/30 10:50:00;;;;;;;1.97;1.00;;;;;;;18.83;100.00;101751.19;5020743;28;20420;-89
2022/08/30 10:52:40;;;;;;;1.77;1.08;;;;;;;18.93;100.00;101752.13;5018026;28;20431;-87
2022/08/30 10:55:14;;;;;;;2.22;1.13;;;;;;;18.66;100.00;101746.31;5002795;28;20439;-90
2022/08/30 10:57:48;;;;;;;2.17;1.00;;;;;;;18.68;100.00;101733.06;5022982;28;20434;-88
2022/08/30 11:00:24;;;;;;;2.50;1.23;;;;;;;18.86;100.00;101744.25;5019122;28;20428;-89
2022/08/30 11:03:23;;;;;;;3.00;1.20;;;;;;;18.75;100.00;101740.09;5002352;28;20966;-87
2022/08/30 11:06:10;;;;;;;2.50;1.13;;;;;;;18.81;100.00;101745.19;5019768;28;21239;-84
2022/08/30 11:09:19;;;;;;;2.00;1.10;;;;;;;18.85;100.00;101746.19;5022391;28;20434;-89
2022/08/30 11:12:13;;;;;;;1.40;1.00;;;;;;;18.82;100.00;101732.19;4992785;28;20434;-89
2022/08/30 11:14:43;;;;;;;2.33;1.20;;;;;;;18.79;100.00;101741.91;5016474;28;20794;-91
2022/08/30 11:17:24;;;;;;;2.38;1.20;;;;;;;18.84;100.00;101743.75;5020250;28;20445;-87
2022/08/30 11:20:00;;;;;;;3.88;1.40;;;;;;;18.55;100.00;101744.91;4995234;28;20437;-86
2022/08/30 11:22:31;;;;;;;6.13;1.42;;;;;;;18.40;100.00;101718.50;5007424;28;20439;-87
2022/08/30 11:25:10;;;;;;;2.75;1.20;;;;;;;18.41;100.00;101733.06;5019969;28;20434;-88
2022/08/30 11:27:48;;;;;;;3.35;1.38;;;;;;;18.46;100.00;101753.09;5019844;28;20481;-87
2022/08/30 11:30:49;;;;;;;2.33;1.07;;;;;;;18.16;100.00;101743.47;5003413;28;20430;-89
2022/08/30 11:33:40;;;;;;;4.40;1.10;;;;;;;18.02;100.00;101740.72;5022373;28;20415;-90
2022/08/30 11:36:47;;;;;;;2.63;1.15;;;;;;;18.14;100.00;101746.56;4975612;28;20434;-87
2022/08/30 11:39:44;;;;;;;1.90;1.00;;;;;;;18.30;100.00;101741.56;5004144;28;20438;-91
2022/08/30 11:42:24;;;;;;;1.65;1.00;;;;;;;18.21;100.00;101721.34;5024428;28;20411;-91
2022/08/30 11:45:34;;;;;;;2.65;1.10;;;;;;;18.29;100.00;101722.59;5023393;28;20426;-89
2022/08/30 11:48:42;;;;;;;2.67;1.00;;;;;;;18.45;100.00;101736.84;5024579;28;20466;-91
2022/08/30 11:51:23;;;;;;;1.83;0.90;;;;;;;18.55;100.00;101730.31;5010691;28;20444;-90
2022/08/30 11:53:59;;;;;;;2.57;0.90;;;;;;;18.62;100.00;101726.00;5021986;28;20432;-86